Aviation Digital Data Service (ADDS)

Output produced by METARs form (0300 UTC 21 January 2018)
found at http://www.aviationweather.gov/adds/metars/
 
KSEG 210253Z AUTO 00000KT 9SM CLR M02/M04 A3008 RMK AO2 SLP190 T10221039 51015
KSEG 210153Z AUTO 00000KT 10SM CLR M01/M03 A3006 RMK AO2 SLP185 T10111033
KSEG 210053Z AUTO 00000KT 10SM CLR 00/M03 A3005 RMK AO2 SLP182 T00001033
KSEG 202353Z AUTO 00000KT 10SM CLR 02/M02 A3003 RMK AO2 SLP174 T00171022 10083 20011 53025
KSEG 202253Z AUTO 20003KT 10SM CLR 04/M02 A3000 RMK AO2 SLP163 T00391022
KSEG 202153Z AUTO 22004KT 10SM CLR 07/M02 A2997 RMK AO2 SLP153 T00671022
KSEG 202053Z AUTO 23004KT 10SM CLR 08/M03 A2996 RMK AO2 SLP147 T00781028 53009
KSEG 201953Z AUTO VRB04KT 10SM CLR 08/M03 A2994 RMK AO2 SLP141 T00781033
KSEG 201853Z AUTO 24004KT 10SM CLR 07/M03 A2993 RMK AO2 SLP140 T00721033
KSEG 201753Z AUTO VRB03KT 10SM CLR 07/M03 A2993 RMK AO2 SLP139 T00671033 10072 21044 58008
KSEG 201653Z AUTO 23004KT 10SM CLR 07/M03 A2994 RMK AO2 SLP142 T00671033
KSEG 201553Z AUTO VRB05KT 10SM CLR 07/M04 A2996 RMK AO2 SLP150 T00671039
KSEG 201453Z AUTO 00000KT 10SM CLR 02/M04 A2995 RMK AO2 SLP149 T00221039 53014
KSEG 201353Z AUTO VRB03KT 10SM CLR M01/M05 A2994 RMK AO2 SLP145 T10111050
KSEG 201253Z AUTO 00000KT 10SM CLR M03/M06 A2992 RMK AO2 SLP137 T10331061
KSEG 201153Z AUTO 21004KT 10SM CLR M03/M06 A2991 RMK AO2 SLP134 T10331061 11022 21050 53000
KSEG 201053Z AUTO 00000KT 10SM CLR M03/M06 A2991 RMK AO2 SLP134 T10281056
KSEG 200953Z AUTO 00000KT 10SM CLR M03/M06 A2991 RMK AO2 SLP132 T10331056
KSEG 200853Z AUTO 00000KT 10SM CLR M04/M06 A2991 RMK AO2 SLP133 T10391061 58009
KSEG 200753Z AUTO 00000KT 10SM CLR M04/M07 A2993 RMK AO2 SLP139 T10441067
KSEG 200653Z AUTO 00000KT 10SM CLR M04/M07 A2993 RMK AO2 SLP141 T10441072
KSEG 200553Z AUTO 00000KT 10SM CLR M04/M07 A2994 RMK AO2 SLP142 T10441072 11017 21061 58012
KSEG 200453Z AUTO 21003KT 10SM CLR M04/M07 A2995 RMK AO2 SLP145 T10441072 400611167
KSEG 200353Z AUTO 00000KT 10SM CLR M05/M07 A2997 RMK AO2 SLP156 T10501072
KSEG 200253Z AUTO 00000KT 10SM CLR M06/M07 A2997 RMK AO2 SLP157 T10561072 58003
KSEG 200153Z AUTO 00000KT 10SM CLR M04/M06 A2998 RMK AO2 SLP160 T10441061
KSEG 200053Z AUTO 00000KT 10SM CLR M04/M06 A2998 RMK AO2 SLP160 T10391061
KSEG 192353Z AUTO 00000KT 10SM CLR M03/M07 A2998 RMK AO2 SLP160 T10331067 10061 21044 53004
KSEG 192253Z AUTO 00000KT 10SM CLR M01/M06 A2998 RMK AO2 SLP158 T10061061
KSEG 192153Z AUTO 22004KT 10SM CLR 04/M07 A2997 RMK AO2 SLP156 T00441067
KSEG 192053Z AUTO 22004KT 10SM CLR 06/M07 A2997 RMK AO2 SLP156 T00561072 56016
KSEG 191953Z AUTO 22007KT 10SM CLR 06/M08 A2997 RMK AO2 SLP156 T00561078
KSEG 191853Z AUTO 21005KT 10SM CLR 04/M09 A2999 RMK AO2 SLP163 T00391089
KSEG 191753Z AUTO 26004KT 10SM CLR 03/M09 A3002 RMK AO2 SLP172 T00331089 10033 21128 58026
KSEG 191653Z AUTO 28005KT 10SM CLR 03/M09 A3005 RMK AO2 SLP181 T00281094
KSEG 191553Z AUTO VRB04KT 10SM CLR 00/M08 A3008 RMK AO2 SLP191 T00001083